map of BTN home
Great Circle Mapper logo
BTN - Airport
Location
City:  Bennettsville, South Carolina, United States
Name:Marlboro County Jetport - H.E. Avent Field
ICAO / IATA:KBBP / BTN
FAA:BBP

Details
Type:Airport (Airfield)
Use:Public/Civil
Latitude:3437'18"N (34.621709)
Longitude:7944'04"W (-79.734358)
Datum:WGS 1984
Elevation:147 ft (45 m)
Runways:1
Longest:5003 × 74 ft (1525 × 22.5 m), paved

Time
Time Zone:UTC-5 (DST-4)
Local Time:

Weather
METAR:KBBP 281955Z AUTO 30009KT 10SM CLR 36/12 A2976 RMK AO2 LTG DSNT E

Related Locations
Nearby:
Farthest:MGV: 11595 mi / 18660 km
Margaret River, WA, AU

Find:

   beyond  
but within

Other Information
Maps:
NOTAMs:
Links:
Sources:

  
flag of United States
flag of South Carolina
  

Sectional Chart

Flight Planning
at skyvector.com

Satellite Image

Google Maps Satellite View

 

Copyright © 2004-2014 Karl L. Swartz. All rights reserved.
The Great Circle Mapper name and logo are trademarks of the Great Circle Mapper.
All other trademarks mentioned herein belong to their respective owners.
Please see credits for attibutions and further copyright information.

  Follow gcmap on Facebook Follow gcmap on Twitter

hCard Microformat

Geo Microformat